»·PEaware :: AAL491 KJAC-KPHX

AAL491 :: KJAC-KPHX

FLIGHT INFORMATION

Flight Status: Arrived
Operator:
American Airlines
More flights by this operator :: More flights under this callsign
Pilot: Jim M. (18055)
Aircraft: AIRBUS A319
(A319)
More flights by this aircraft type
Origin: KJAC Jackson Hole
United States
Destination: KPHX Phoenix Sky Harbor Intl
United States
More flights between these airports :: More routes between these airports
Route: +ALPIN2 KICNE MLD DTA BCE J11 CORKR TENTS BRUSR1
File this flight plan on PilotEdge
Remarks:
Altitude:
(Current/Filed)
37,000ft
Speed:
(Current/Filed)
450kts
Departed: 18-Mar-19 09:42 AM
Arrived: 18-Mar-19 11:19 AM
Distance/Time
Traveled:
613nm/1:37
Distance/Time
To Go:
Arrived

Flight Plot

Page will automatically refresh every two minutes.

Flight plan parsing failed; only flown route is shown


Map Options




Map Legend


Flown Route
Filed Route
Departure Airport
Arrival Airport
Navaid (VOR, NDB)
Fix

Horizontal Profiles

Position Reports

Time Latitude Longitude Heading Altitude Ground
Speed
18-Mar-19 08:59 43.604552 -110.735926 109 6465ft 0kts
18-Mar-19 09:00 43.604552 -110.735926 109 6465ft 0kts
18-Mar-19 09:01 43.604552 -110.735926 109 6465ft 0kts
18-Mar-19 09:02 43.604552 -110.735926 109 6465ft 0kts
18-Mar-19 09:03 43.604552 -110.735926 109 6465ft 0kts
18-Mar-19 09:04 43.604552 -110.735926 109 6465ft 0kts
18-Mar-19 09:05 43.604552 -110.735926 109 6465ft 0kts
18-Mar-19 09:06 43.604552 -110.735926 109 6465ft 0kts
18-Mar-19 09:06 43.604552 -110.735926 109 6465ft 0kts
18-Mar-19 09:08 43.604552 -110.735926 109 6465ft 0kts
18-Mar-19 09:09 43.604552 -110.735926 109 6465ft 0kts
18-Mar-19 09:10 43.604552 -110.735926 109 6465ft 0kts
18-Mar-19 09:10 43.604552 -110.735926 109 6465ft 0kts
18-Mar-19 09:12 43.604552 -110.735926 109 6465ft 0kts
18-Mar-19 09:12 43.604552 -110.735926 109 6465ft 0kts
18-Mar-19 09:13 43.604552 -110.735926 109 6465ft 0kts
18-Mar-19 09:14 43.604552 -110.735926 109 6465ft 0kts
18-Mar-19 09:16 43.604552 -110.735926 109 6465ft 0kts
18-Mar-19 09:16 43.604552 -110.735926 109 6465ft 0kts
18-Mar-19 09:17 43.604552 -110.735926 109 6465ft 0kts
18-Mar-19 09:18 43.604552 -110.735926 109 6465ft 0kts
18-Mar-19 09:19 43.604552 -110.735926 109 6465ft 0kts
18-Mar-19 09:20 43.604552 -110.735926 109 6465ft 0kts
18-Mar-19 09:21 43.604552 -110.735926 109 6465ft 0kts
18-Mar-19 09:22 43.604552 -110.735926 109 6465ft 0kts
18-Mar-19 09:23 43.604552 -110.735926 109 6465ft 0kts
18-Mar-19 09:24 43.604552 -110.735926 109 6465ft 0kts
18-Mar-19 09:25 43.604552 -110.735926 109 6465ft 0kts
18-Mar-19 09:26 43.604552 -110.735926 109 6465ft 0kts
18-Mar-19 09:27 43.604552 -110.735926 109 6465ft 0kts
18-Mar-19 09:28 43.604643 -110.736309 109 6465ft 2kts
18-Mar-19 09:29 43.604751 -110.737165 65 6465ft 2kts
18-Mar-19 09:30 43.604570 -110.737363 19 6465ft 0kts
18-Mar-19 09:31 43.604570 -110.737363 19 6465ft 0kts
18-Mar-19 09:32 43.604571 -110.737363 19 6465ft 0kts
18-Mar-19 09:33 43.604572 -110.737362 19 6465ft 0kts
18-Mar-19 09:34 43.604573 -110.737362 19 6465ft 0kts
18-Mar-19 09:35 43.605998 -110.736667 19 6465ft 17kts
18-Mar-19 09:36 43.609947 -110.734779 17 6465ft 16kts
18-Mar-19 09:37 43.613257 -110.733172 20 6465ft 10kts
18-Mar-19 09:38 43.614768 -110.732278 316 6465ft 0kts
18-Mar-19 09:39 43.614769 -110.732279 316 6465ft 0kts
18-Mar-19 09:40 43.615260 -110.733760 256 6465ft 7kts
18-Mar-19 09:41 43.600044 -110.741124 198 6505ft 164kts
18-Mar-19 09:42 43.553021 -110.770308 204 8519ft 211kts
18-Mar-19 09:43 43.490661 -110.810890 205 10228ft 280kts
18-Mar-19 09:44 43.410814 -110.862949 206 11801ft 349kts
18-Mar-19 09:45 43.319529 -110.922385 207 14291ft 369kts
18-Mar-19 09:46 43.225546 -110.984544 214 16715ft 381kts
18-Mar-19 09:47 43.150648 -111.087807 230 18968ft 388kts
18-Mar-19 09:48 43.076113 -111.197174 229 21102ft 398kts
18-Mar-19 09:49 42.999452 -111.309042 229 23031ft 406kts
18-Mar-19 09:50 42.921425 -111.422524 229 24776ft 413kts
18-Mar-19 09:51 42.842140 -111.537278 230 26362ft 419kts
18-Mar-19 09:52 42.761796 -111.653241 229 27814ft 423kts
18-Mar-19 09:53 42.680403 -111.770125 230 29163ft 426kts
18-Mar-19 09:54 42.598461 -111.887370 229 30404ft 427kts
18-Mar-19 09:55 42.517142 -112.003096 230 31832ft 421kts
18-Mar-19 09:56 42.436338 -112.117829 229 33060ft 419kts
18-Mar-19 09:57 42.356224 -112.231171 230 34164ft 416kts
18-Mar-19 09:58 42.275592 -112.344669 230 34925ft 420kts
18-Mar-19 09:59 42.183571 -112.443374 204 35590ft 439kts
18-Mar-19 10:00 42.059238 -112.453661 185 36133ft 456kts
18-Mar-19 10:01 41.932174 -112.456577 186 36736ft 456kts
18-Mar-19 10:02 41.805265 -112.458713 186 37184ft 458kts
18-Mar-19 10:03 41.677488 -112.461308 185 37320ft 459kts
18-Mar-19 10:04 41.549952 -112.463722 186 37319ft 458kts
18-Mar-19 10:05 41.421947 -112.466177 186 37319ft 459kts
18-Mar-19 10:06 41.294299 -112.468621 186 37308ft 459kts
18-Mar-19 10:07 41.166498 -112.471033 186 37328ft 459kts
18-Mar-19 10:08 41.038599 -112.473464 186 37336ft 459kts
18-Mar-19 10:09 40.911022 -112.475850 186 37338ft 459kts
18-Mar-19 10:10 40.783313 -112.478335 186 37333ft 459kts
18-Mar-19 10:11 40.655652 -112.480610 186 37332ft 459kts
18-Mar-19 10:12 40.528120 -112.483044 186 37333ft 458kts
18-Mar-19 10:13 40.400208 -112.485361 186 37334ft 458kts
18-Mar-19 10:14 40.272895 -112.487797 186 37334ft 458kts
18-Mar-19 10:15 40.145383 -112.490114 186 37303ft 458kts
18-Mar-19 10:16 40.018004 -112.492409 186 37282ft 459kts
18-Mar-19 10:17 39.889863 -112.494793 187 37284ft 461kts
18-Mar-19 10:18 39.761380 -112.497079 187 37324ft 462kts
18-Mar-19 10:19 39.632534 -112.499427 187 37318ft 463kts
18-Mar-19 10:20 39.503719 -112.501857 187 37314ft 462kts
18-Mar-19 10:21 39.375109 -112.504124 187 37294ft 461kts
18-Mar-19 10:22 39.246318 -112.498931 180 37227ft 468kts
18-Mar-19 10:23 39.116511 -112.481529 181 37225ft 468kts
18-Mar-19 10:24 38.986860 -112.465220 181 37231ft 469kts
18-Mar-19 10:25 38.856729 -112.448722 181 37295ft 471kts
18-Mar-19 10:26 38.726019 -112.432264 181 37316ft 473kts
18-Mar-19 10:27 38.594896 -112.415787 181 37316ft 473kts
18-Mar-19 10:28 38.464407 -112.399468 180 37308ft 470kts
18-Mar-19 10:29 38.334153 -112.383208 181 37249ft 471kts
18-Mar-19 10:30 38.202708 -112.366878 181 37266ft 474kts
18-Mar-19 10:31 38.071758 -112.350664 181 37334ft 474kts
18-Mar-19 10:32 37.940305 -112.334389 181 37336ft 474kts
18-Mar-19 10:33 37.809371 -112.318348 181 37326ft 471kts
18-Mar-19 10:34 37.678937 -112.304435 188 37254ft 465kts
18-Mar-19 10:35 37.549168 -112.312503 190 37299ft 471kts
18-Mar-19 10:36 37.417761 -112.320245 190 37338ft 472kts
18-Mar-19 10:37 37.287169 -112.328285 190 37334ft 467kts
18-Mar-19 10:38 37.157033 -112.336177 190 37307ft 470kts
18-Mar-19 10:39 37.026190 -112.344031 190 37304ft 471kts
18-Mar-19 10:40 36.894972 -112.352021 190 37307ft 473kts
18-Mar-19 10:41 36.763391 -112.359799 191 37315ft 475kts
18-Mar-19 10:42 36.631433 -112.367747 191 37310ft 474kts
18-Mar-19 10:43 36.499212 -112.375607 191 37251ft 476kts
18-Mar-19 10:44 36.367136 -112.383453 191 37257ft 476kts
18-Mar-19 10:45 36.234224 -112.391356 191 37248ft 476kts
18-Mar-19 10:46 36.102055 -112.399181 191 37253ft 477kts
18-Mar-19 10:47 35.969946 -112.410199 192 37303ft 475kts
18-Mar-19 10:48 35.838392 -112.421678 192 36536ft 475kts
18-Mar-19 10:49 35.706539 -112.433121 191 35542ft 473kts
18-Mar-19 10:50 35.575051 -112.444642 191 34546ft 472kts
18-Mar-19 10:51 35.442710 -112.443133 177 33586ft 484kts
18-Mar-19 10:52 35.310003 -112.415637 176 32295ft 481kts
18-Mar-19 10:53 35.179965 -112.390485 173 29086ft 451kts
18-Mar-19 10:54 35.061608 -112.364480 172 27486ft 432kts
18-Mar-19 10:55 34.944843 -112.339354 171 25924ft 417kts
18-Mar-19 10:56 34.833659 -112.315252 171 24442ft 400kts
18-Mar-19 10:57 34.722760 -112.290757 170 22946ft 401kts
18-Mar-19 10:58 34.616163 -112.267341 170 21513ft 376kts
18-Mar-19 10:59 34.510707 -112.244265 170 20097ft 384kts
18-Mar-19 11:00 34.409888 -112.220817 168 18715ft 355kts
18-Mar-19 11:02 34.313976 -112.195859 168 16762ft 343kts
18-Mar-19 11:03 34.222403 -112.172169 168 15387ft 328kts
18-Mar-19 11:04 34.135369 -112.149731 168 14173ft 311kts
18-Mar-19 11:05 34.052481 -112.139971 185 12877ft 296kts
18-Mar-19 11:06 33.971838 -112.149899 185 11702ft 287kts
18-Mar-19 11:07 33.893626 -112.159906 189 10586ft 278kts
18-Mar-19 11:08 33.818619 -112.176074 188 9569ft 264kts
18-Mar-19 11:09 33.750568 -112.190439 188 8509ft 243kts
18-Mar-19 11:10 33.685748 -112.204230 188 7093ft 234kts
18-Mar-19 11:11 33.627008 -112.216648 188 6239ft 189kts
18-Mar-19 11:12 33.574106 -112.227853 189 4840ft 183kts
18-Mar-19 11:13 33.524174 -112.238589 188 4024ft 182kts
18-Mar-19 11:14 33.487026 -112.210713 120 3143ft 175kts
18-Mar-19 11:15 33.459903 -112.162496 130 3010ft 176kts
18-Mar-19 11:16 33.440805 -112.116871 90 2667ft 133kts
18-Mar-19 11:17 33.440839 -112.073497 89 1941ft 132kts
18-Mar-19 11:18 33.440824 -112.029670 88 1237ft 131kts
18-Mar-19 11:19 33.440738 -112.007988 118 1149ft 19kts
18-Mar-19 11:20 33.439032 -112.006557 90 1149ft 14kts
18-Mar-19 11:20 33.439006 -112.003333 87 1149ft 10kts
18-Mar-19 11:22 33.437600 -112.002677 82 1149ft 3kts
18-Mar-19 11:23 33.437616 -112.002461 87 1149ft 0kts
18-Mar-19 11:23 33.437616 -112.002461 87 1149ft 0kts

Navigation Log

Ident Type
Flight plan parsing failed, navigation log unavailable